sensor_id;sensor_type;location;lat;lon;timestamp;P1;durP1;ratioP1;P2;durP2;ratioP2
10333;SDS011;5212;47.892;16.406;2023-09-07T00:01:44;4.97;;;3.30;;
10333;SDS011;5212;47.892;16.406;2023-09-07T00:04:10;4.63;;;3.13;;
10333;SDS011;5212;47.892;16.406;2023-09-07T00:06:39;4.60;;;3.00;;
10333;SDS011;5212;47.892;16.406;2023-09-07T00:09:06;5.70;;;3.53;;
10333;SDS011;5212;47.892;16.406;2023-09-07T00:11:33;5.03;;;3.27;;
10333;SDS011;5212;47.892;16.406;2023-09-07T00:13:59;5.47;;;4.03;;
10333;SDS011;5212;47.892;16.406;2023-09-07T00:16:25;4.57;;;3.47;;
10333;SDS011;5212;47.892;16.406;2023-09-07T00:18:51;8.03;;;4.10;;
10333;SDS011;5212;47.892;16.406;2023-09-07T00:21:17;4.70;;;3.63;;
10333;SDS011;5212;47.892;16.406;2023-09-07T00:23:44;6.17;;;3.57;;
10333;SDS011;5212;47.892;16.406;2023-09-07T00:26:10;7.37;;;3.73;;
10333;SDS011;5212;47.892;16.406;2023-09-07T00:28:37;5.73;;;3.40;;
10333;SDS011;5212;47.892;16.406;2023-09-07T00:31:03;4.93;;;3.53;;
10333;SDS011;5212;47.892;16.406;2023-09-07T00:33:29;4.80;;;3.60;;
10333;SDS011;5212;47.892;16.406;2023-09-07T00:35:55;7.60;;;4.60;;
10333;SDS011;5212;47.892;16.406;2023-09-07T00:38:21;5.53;;;3.73;;
10333;SDS011;5212;47.892;16.406;2023-09-07T00:40:48;3.97;;;2.93;;
10333;SDS011;5212;47.892;16.406;2023-09-07T00:43:14;5.60;;;3.83;;
10333;SDS011;5212;47.892;16.406;2023-09-07T00:45:40;5.13;;;3.47;;
10333;SDS011;5212;47.892;16.406;2023-09-07T00:48:06;5.23;;;3.97;;
10333;SDS011;5212;47.892;16.406;2023-09-07T00:50:33;5.77;;;4.07;;
10333;SDS011;5212;47.892;16.406;2023-09-07T00:52:59;6.27;;;3.67;;
10333;SDS011;5212;47.892;16.406;2023-09-07T00:55:25;5.17;;;3.60;;
10333;SDS011;5212;47.892;16.406;2023-09-07T00:57:53;5.63;;;3.87;;
10333;SDS011;5212;47.892;16.406;2023-09-07T01:00:20;6.30;;;3.87;;
10333;SDS011;5212;47.892;16.406;2023-09-07T01:02:46;4.47;;;3.30;;
10333;SDS011;5212;47.892;16.406;2023-09-07T01:05:12;4.83;;;3.13;;
10333;SDS011;5212;47.892;16.406;2023-09-07T01:07:40;4.23;;;3.10;;
10333;SDS011;5212;47.892;16.406;2023-09-07T01:10:08;4.10;;;3.00;;
10333;SDS011;5212;47.892;16.406;2023-09-07T01:12:35;3.83;;;2.77;;
10333;SDS011;5212;47.892;16.406;2023-09-07T01:15:02;4.57;;;3.07;;
10333;SDS011;5212;47.892;16.406;2023-09-07T01:17:29;4.63;;;3.40;;
10333;SDS011;5212;47.892;16.406;2023-09-07T01:19:56;5.93;;;3.33;;
10333;SDS011;5212;47.892;16.406;2023-09-07T01:22:25;4.00;;;2.83;;
10333;SDS011;5212;47.892;16.406;2023-09-07T01:24:51;4.13;;;3.00;;
10333;SDS011;5212;47.892;16.406;2023-09-07T01:27:18;4.40;;;3.20;;
10333;SDS011;5212;47.892;16.406;2023-09-07T01:29:44;4.77;;;2.70;;
10333;SDS011;5212;47.892;16.406;2023-09-07T01:32:10;4.47;;;3.20;;
10333;SDS011;5212;47.892;16.406;2023-09-07T01:34:36;5.13;;;3.40;;
10333;SDS011;5212;47.892;16.406;2023-09-07T01:37:03;4.77;;;3.53;;
10333;SDS011;5212;47.892;16.406;2023-09-07T01:39:30;4.00;;;3.17;;
10333;SDS011;5212;47.892;16.406;2023-09-07T01:41:56;5.43;;;3.50;;
10333;SDS011;5212;47.892;16.406;2023-09-07T01:44:22;4.13;;;3.53;;
10333;SDS011;5212;47.892;16.406;2023-09-07T01:46:48;5.60;;;3.50;;
10333;SDS011;5212;47.892;16.406;2023-09-07T01:49:14;5.93;;;3.40;;
10333;SDS011;5212;47.892;16.406;2023-09-07T01:51:40;7.53;;;3.80;;
10333;SDS011;5212;47.892;16.406;2023-09-07T01:54:07;4.60;;;3.60;;
10333;SDS011;5212;47.892;16.406;2023-09-07T01:56:35;4.50;;;3.23;;
10333;SDS011;5212;47.892;16.406;2023-09-07T01:59:01;6.10;;;3.57;;
10333;SDS011;5212;47.892;16.406;2023-09-07T02:01:28;4.00;;;3.20;;
10333;SDS011;5212;47.892;16.406;2023-09-07T02:03:56;4.17;;;3.00;;
10333;SDS011;5212;47.892;16.406;2023-09-07T02:06:22;6.90;;;3.60;;
10333;SDS011;5212;47.892;16.406;2023-09-07T02:08:48;6.13;;;4.40;;
10333;SDS011;5212;47.892;16.406;2023-09-07T02:11:14;5.00;;;3.90;;
10333;SDS011;5212;47.892;16.406;2023-09-07T02:13:41;8.67;;;4.37;;
10333;SDS011;5212;47.892;16.406;2023-09-07T02:16:08;5.63;;;4.07;;
10333;SDS011;5212;47.892;16.406;2023-09-07T02:18:35;5.13;;;2.90;;
10333;SDS011;5212;47.892;16.406;2023-09-07T02:21:01;5.60;;;3.83;;
10333;SDS011;5212;47.892;16.406;2023-09-07T02:23:27;5.40;;;3.93;;
10333;SDS011;5212;47.892;16.406;2023-09-07T02:25:54;5.87;;;3.70;;
10333;SDS011;5212;47.892;16.406;2023-09-07T02:28:20;5.23;;;3.40;;
10333;SDS011;5212;47.892;16.406;2023-09-07T02:30:47;4.70;;;3.37;;
10333;SDS011;5212;47.892;16.406;2023-09-07T02:33:13;5.77;;;3.60;;
10333;SDS011;5212;47.892;16.406;2023-09-07T02:35:39;6.23;;;4.20;;
10333;SDS011;5212;47.892;16.406;2023-09-07T02:38:05;5.87;;;3.97;;
10333;SDS011;5212;47.892;16.406;2023-09-07T02:40:31;6.10;;;3.20;;
10333;SDS011;5212;47.892;16.406;2023-09-07T02:42:57;4.27;;;2.80;;
10333;SDS011;5212;47.892;16.406;2023-09-07T02:45:23;5.20;;;3.13;;
10333;SDS011;5212;47.892;16.406;2023-09-07T02:47:49;5.33;;;3.07;;
10333;SDS011;5212;47.892;16.406;2023-09-07T02:50:17;3.50;;;2.70;;
10333;SDS011;5212;47.892;16.406;2023-09-07T02:52:43;5.20;;;2.60;;
10333;SDS011;5212;47.892;16.406;2023-09-07T02:55:09;3.60;;;2.87;;
10333;SDS011;5212;47.892;16.406;2023-09-07T02:57:35;4.30;;;2.70;;
10333;SDS011;5212;47.892;16.406;2023-09-07T03:00:01;3.47;;;2.47;;
10333;SDS011;5212;47.892;16.406;2023-09-07T03:02:34;3.60;;;2.80;;
10333;SDS011;5212;47.892;16.406;2023-09-07T03:05:01;3.43;;;2.37;;
10333;SDS011;5212;47.892;16.406;2023-09-07T03:07:29;3.90;;;2.70;;
10333;SDS011;5212;47.892;16.406;2023-09-07T03:09:58;3.73;;;2.60;;
10333;SDS011;5212;47.892;16.406;2023-09-07T03:12:25;5.23;;;3.77;;
10333;SDS011;5212;47.892;16.406;2023-09-07T03:14:51;5.67;;;3.90;;
10333;SDS011;5212;47.892;16.406;2023-09-07T03:17:17;4.57;;;2.87;;
10333;SDS011;5212;47.892;16.406;2023-09-07T03:19:43;4.73;;;3.03;;
10333;SDS011;5212;47.892;16.406;2023-09-07T03:22:10;3.70;;;3.10;;
10333;SDS011;5212;47.892;16.406;2023-09-07T03:24:36;5.93;;;3.33;;
10333;SDS011;5212;47.892;16.406;2023-09-07T03:27:02;5.33;;;3.23;;
10333;SDS011;5212;47.892;16.406;2023-09-07T03:29:29;4.47;;;2.93;;
10333;SDS011;5212;47.892;16.406;2023-09-07T03:31:55;3.70;;;2.80;;
10333;SDS011;5212;47.892;16.406;2023-09-07T03:34:21;5.00;;;3.17;;
10333;SDS011;5212;47.892;16.406;2023-09-07T03:36:47;4.07;;;3.00;;
10333;SDS011;5212;47.892;16.406;2023-09-07T03:39:14;4.73;;;2.73;;
10333;SDS011;5212;47.892;16.406;2023-09-07T03:41:40;5.17;;;3.40;;
10333;SDS011;5212;47.892;16.406;2023-09-07T03:44:06;4.83;;;3.70;;
10333;SDS011;5212;47.892;16.406;2023-09-07T03:46:32;6.33;;;4.07;;
10333;SDS011;5212;47.892;16.406;2023-09-07T03:48:58;5.17;;;3.50;;
10333;SDS011;5212;47.892;16.406;2023-09-07T03:51:24;6.17;;;3.70;;
10333;SDS011;5212;47.892;16.406;2023-09-07T03:53:50;4.17;;;2.87;;
10333;SDS011;5212;47.892;16.406;2023-09-07T03:56:17;5.80;;;3.77;;
10333;SDS011;5212;47.892;16.406;2023-09-07T03:58:43;4.63;;;3.03;;
10333;SDS011;5212;47.892;16.406;2023-09-07T04:01:09;6.00;;;2.97;;
10333;SDS011;5212;47.892;16.406;2023-09-07T04:03:35;6.37;;;3.70;;
10333;SDS011;5212;47.892;16.406;2023-09-07T04:06:01;4.90;;;2.97;;
10333;SDS011;5212;47.892;16.406;2023-09-07T04:08:28;4.30;;;2.87;;
10333;SDS011;5212;47.892;16.406;2023-09-07T04:10:54;5.10;;;2.70;;
10333;SDS011;5212;47.892;16.406;2023-09-07T04:13:20;5.37;;;3.20;;
10333;SDS011;5212;47.892;16.406;2023-09-07T04:15:47;5.37;;;2.90;;
10333;SDS011;5212;47.892;16.406;2023-09-07T04:18:14;3.77;;;2.67;;
10333;SDS011;5212;47.892;16.406;2023-09-07T04:20:41;3.43;;;2.57;;
10333;SDS011;5212;47.892;16.406;2023-09-07T04:23:07;4.73;;;2.93;;
10333;SDS011;5212;47.892;16.406;2023-09-07T04:25:34;4.20;;;2.93;;
10333;SDS011;5212;47.892;16.406;2023-09-07T04:28:00;4.90;;;3.20;;
10333;SDS011;5212;47.892;16.406;2023-09-07T04:30:26;3.80;;;2.80;;
10333;SDS011;5212;47.892;16.406;2023-09-07T04:32:53;5.00;;;3.37;;
10333;SDS011;5212;47.892;16.406;2023-09-07T04:35:19;5.50;;;3.63;;
10333;SDS011;5212;47.892;16.406;2023-09-07T04:37:45;4.53;;;3.23;;
10333;SDS011;5212;47.892;16.406;2023-09-07T04:40:11;6.17;;;4.00;;
10333;SDS011;5212;47.892;16.406;2023-09-07T04:42:37;5.40;;;3.77;;
10333;SDS011;5212;47.892;16.406;2023-09-07T04:45:04;7.87;;;3.90;;
10333;SDS011;5212;47.892;16.406;2023-09-07T04:47:31;7.60;;;4.47;;
10333;SDS011;5212;47.892;16.406;2023-09-07T04:49:57;7.30;;;4.10;;
10333;SDS011;5212;47.892;16.406;2023-09-07T04:52:23;5.40;;;3.67;;
10333;SDS011;5212;47.892;16.406;2023-09-07T04:54:50;3.77;;;3.03;;
10333;SDS011;5212;47.892;16.406;2023-09-07T04:57:16;5.43;;;3.70;;
10333;SDS011;5212;47.892;16.406;2023-09-07T04:59:42;5.33;;;3.83;;
10333;SDS011;5212;47.892;16.406;2023-09-07T05:02:08;6.60;;;3.97;;
10333;SDS011;5212;47.892;16.406;2023-09-07T05:04:35;5.23;;;3.73;;
10333;SDS011;5212;47.892;16.406;2023-09-07T05:07:01;4.67;;;3.40;;
10333;SDS011;5212;47.892;16.406;2023-09-07T05:09:27;6.57;;;3.77;;
10333;SDS011;5212;47.892;16.406;2023-09-07T05:11:54;7.77;;;4.00;;
10333;SDS011;5212;47.892;16.406;2023-09-07T05:14:20;6.97;;;4.30;;
10333;SDS011;5212;47.892;16.406;2023-09-07T05:16:47;5.43;;;3.57;;
10333;SDS011;5212;47.892;16.406;2023-09-07T05:19:13;5.83;;;4.03;;
10333;SDS011;5212;47.892;16.406;2023-09-07T05:21:40;6.90;;;4.50;;
10333;SDS011;5212;47.892;16.406;2023-09-07T05:24:06;6.93;;;4.40;;
10333;SDS011;5212;47.892;16.406;2023-09-07T05:26:32;8.07;;;4.63;;
10333;SDS011;5212;47.892;16.406;2023-09-07T05:28:58;7.27;;;4.67;;
10333;SDS011;5212;47.892;16.406;2023-09-07T05:31:24;7.67;;;4.93;;
10333;SDS011;5212;47.892;16.406;2023-09-07T05:33:50;7.57;;;4.73;;
10333;SDS011;5212;47.892;16.406;2023-09-07T05:36:17;8.50;;;5.43;;
10333;SDS011;5212;47.892;16.406;2023-09-07T05:38:43;6.97;;;4.57;;
10333;SDS011;5212;47.892;16.406;2023-09-07T05:41:09;7.63;;;5.60;;
10333;SDS011;5212;47.892;16.406;2023-09-07T05:43:35;9.20;;;5.67;;
10333;SDS011;5212;47.892;16.406;2023-09-07T05:46:01;6.50;;;5.00;;
10333;SDS011;5212;47.892;16.406;2023-09-07T05:48:27;11.23;;;6.10;;
10333;SDS011;5212;47.892;16.406;2023-09-07T05:50:53;9.40;;;5.47;;
10333;SDS011;5212;47.892;16.406;2023-09-07T05:53:19;6.57;;;5.00;;
10333;SDS011;5212;47.892;16.406;2023-09-07T05:55:46;12.70;;;6.10;;
10333;SDS011;5212;47.892;16.406;2023-09-07T05:58:12;11.20;;;6.00;;
10333;SDS011;5212;47.892;16.406;2023-09-07T06:00:39;13.70;;;6.37;;
10333;SDS011;5212;47.892;16.406;2023-09-07T06:03:06;8.13;;;4.97;;
10333;SDS011;5212;47.892;16.406;2023-09-07T06:05:33;7.63;;;5.00;;
10333;SDS011;5212;47.892;16.406;2023-09-07T06:07:59;9.87;;;5.10;;
10333;SDS011;5212;47.892;16.406;2023-09-07T06:10:27;7.90;;;5.30;;
10333;SDS011;5212;47.892;16.406;2023-09-07T06:12:54;9.73;;;5.37;;
10333;SDS011;5212;47.892;16.406;2023-09-07T06:15:20;7.97;;;5.50;;
10333;SDS011;5212;47.892;16.406;2023-09-07T06:17:46;8.23;;;6.00;;
10333;SDS011;5212;47.892;16.406;2023-09-07T06:20:12;8.30;;;5.83;;
10333;SDS011;5212;47.892;16.406;2023-09-07T06:22:38;9.57;;;5.80;;
10333;SDS011;5212;47.892;16.406;2023-09-07T06:25:04;7.70;;;5.20;;
10333;SDS011;5212;47.892;16.406;2023-09-07T06:27:30;8.03;;;5.57;;
10333;SDS011;5212;47.892;16.406;2023-09-07T06:29:57;8.40;;;5.53;;
10333;SDS011;5212;47.892;16.406;2023-09-07T06:32:23;7.40;;;5.23;;
10333;SDS011;5212;47.892;16.406;2023-09-07T06:34:49;7.37;;;4.90;;
10333;SDS011;5212;47.892;16.406;2023-09-07T06:37:15;8.13;;;4.93;;
10333;SDS011;5212;47.892;16.406;2023-09-07T06:39:42;8.40;;;5.63;;
10333;SDS011;5212;47.892;16.406;2023-09-07T06:42:08;9.27;;;5.40;;
10333;SDS011;5212;47.892;16.406;2023-09-07T06:44:35;6.30;;;4.60;;
10333;SDS011;5212;47.892;16.406;2023-09-07T06:47:02;8.87;;;6.20;;
10333;SDS011;5212;47.892;16.406;2023-09-07T06:49:28;7.30;;;5.60;;
10333;SDS011;5212;47.892;16.406;2023-09-07T06:51:55;9.03;;;4.73;;
10333;SDS011;5212;47.892;16.406;2023-09-07T06:54:21;7.83;;;5.03;;
10333;SDS011;5212;47.892;16.406;2023-09-07T06:56:47;9.30;;;5.13;;
10333;SDS011;5212;47.892;16.406;2023-09-07T06:59:13;6.40;;;4.83;;
10333;SDS011;5212;47.892;16.406;2023-09-07T07:01:39;5.93;;;4.70;;
10333;SDS011;5212;47.892;16.406;2023-09-07T07:04:06;7.97;;;5.27;;
10333;SDS011;5212;47.892;16.406;2023-09-07T07:06:32;7.90;;;5.00;;
10333;SDS011;5212;47.892;16.406;2023-09-07T07:09:02;6.03;;;5.00;;
10333;SDS011;5212;47.892;16.406;2023-09-07T07:11:28;6.70;;;4.90;;
10333;SDS011;5212;47.892;16.406;2023-09-07T07:13:54;6.20;;;4.67;;
10333;SDS011;5212;47.892;16.406;2023-09-07T07:16:20;7.77;;;5.87;;
10333;SDS011;5212;47.892;16.406;2023-09-07T07:18:46;8.90;;;5.60;;
10333;SDS011;5212;47.892;16.406;2023-09-07T07:21:15;9.43;;;5.20;;
10333;SDS011;5212;47.892;16.406;2023-09-07T07:23:44;6.83;;;4.87;;
10333;SDS011;5212;47.892;16.406;2023-09-07T07:26:10;8.40;;;4.80;;
10333;SDS011;5212;47.892;16.406;2023-09-07T07:28:36;7.13;;;4.60;;
10333;SDS011;5212;47.892;16.406;2023-09-07T07:31:06;5.63;;;4.50;;
10333;SDS011;5212;47.892;16.406;2023-09-07T07:33:33;8.53;;;5.47;;
10333;SDS011;5212;47.892;16.406;2023-09-07T07:35:59;9.37;;;5.60;;
10333;SDS011;5212;47.892;16.406;2023-09-07T07:38:26;6.27;;;4.73;;
10333;SDS011;5212;47.892;16.406;2023-09-07T07:40:52;10.80;;;4.90;;
10333;SDS011;5212;47.892;16.406;2023-09-07T07:43:18;7.33;;;5.83;;
10333;SDS011;5212;47.892;16.406;2023-09-07T07:45:44;8.67;;;5.30;;
10333;SDS011;5212;47.892;16.406;2023-09-07T07:48:10;6.47;;;4.67;;
10333;SDS011;5212;47.892;16.406;2023-09-07T07:50:37;6.97;;;4.40;;
10333;SDS011;5212;47.892;16.406;2023-09-07T07:53:03;7.17;;;5.20;;
10333;SDS011;5212;47.892;16.406;2023-09-07T07:55:30;6.93;;;4.97;;
10333;SDS011;5212;47.892;16.406;2023-09-07T07:58:03;8.23;;;5.00;;
10333;SDS011;5212;47.892;16.406;2023-09-07T08:00:30;5.90;;;5.17;;
10333;SDS011;5212;47.892;16.406;2023-09-07T08:02:56;5.33;;;4.53;;
10333;SDS011;5212;47.892;16.406;2023-09-07T08:05:22;7.30;;;4.53;;
10333;SDS011;5212;47.892;16.406;2023-09-07T08:07:48;6.03;;;4.40;;
10333;SDS011;5212;47.892;16.406;2023-09-07T08:10:14;8.83;;;5.20;;
10333;SDS011;5212;47.892;16.406;2023-09-07T08:12:41;7.17;;;5.10;;
10333;SDS011;5212;47.892;16.406;2023-09-07T08:15:07;5.97;;;4.20;;
10333;SDS011;5212;47.892;16.406;2023-09-07T08:17:34;5.40;;;3.67;;
10333;SDS011;5212;47.892;16.406;2023-09-07T08:20:00;5.37;;;4.40;;
10333;SDS011;5212;47.892;16.406;2023-09-07T08:22:26;6.43;;;4.70;;
10333;SDS011;5212;47.892;16.406;2023-09-07T08:24:52;6.80;;;4.33;;
10333;SDS011;5212;47.892;16.406;2023-09-07T08:27:19;4.50;;;4.00;;
10333;SDS011;5212;47.892;16.406;2023-09-07T08:29:47;6.47;;;4.13;;
10333;SDS011;5212;47.892;16.406;2023-09-07T08:32:16;6.07;;;4.10;;
10333;SDS011;5212;47.892;16.406;2023-09-07T08:34:42;5.70;;;3.90;;
10333;SDS011;5212;47.892;16.406;2023-09-07T08:37:08;3.90;;;3.03;;
10333;SDS011;5212;47.892;16.406;2023-09-07T08:39:34;4.10;;;3.40;;
10333;SDS011;5212;47.892;16.406;2023-09-07T08:42:01;3.90;;;2.97;;
10333;SDS011;5212;47.892;16.406;2023-09-07T08:44:27;6.57;;;2.97;;
10333;SDS011;5212;47.892;16.406;2023-09-07T08:46:55;3.20;;;2.70;;
10333;SDS011;5212;47.892;16.406;2023-09-07T08:49:21;3.97;;;2.90;;
10333;SDS011;5212;47.892;16.406;2023-09-07T08:51:48;3.37;;;2.77;;
10333;SDS011;5212;47.892;16.406;2023-09-07T08:54:14;3.63;;;3.03;;
10333;SDS011;5212;47.892;16.406;2023-09-07T08:56:40;3.27;;;2.70;;
10333;SDS011;5212;47.892;16.406;2023-09-07T08:59:06;3.37;;;2.70;;
10333;SDS011;5212;47.892;16.406;2023-09-07T09:01:33;4.40;;;2.97;;
10333;SDS011;5212;47.892;16.406;2023-09-07T09:03:59;6.70;;;2.97;;
10333;SDS011;5212;47.892;16.406;2023-09-07T09:06:25;4.27;;;2.80;;
10333;SDS011;5212;47.892;16.406;2023-09-07T09:08:52;3.77;;;2.73;;
10333;SDS011;5212;47.892;16.406;2023-09-07T09:11:19;3.33;;;2.97;;
10333;SDS011;5212;47.892;16.406;2023-09-07T09:13:46;3.40;;;2.70;;
10333;SDS011;5212;47.892;16.406;2023-09-07T09:16:13;4.90;;;2.70;;
10333;SDS011;5212;47.892;16.406;2023-09-07T09:18:47;3.80;;;3.10;;
10333;SDS011;5212;47.892;16.406;2023-09-07T09:21:14;3.57;;;2.83;;
10333;SDS011;5212;47.892;16.406;2023-09-07T09:23:41;4.20;;;2.97;;
10333;SDS011;5212;47.892;16.406;2023-09-07T09:26:07;4.90;;;3.10;;
10333;SDS011;5212;47.892;16.406;2023-09-07T09:28:33;3.70;;;2.57;;
10333;SDS011;5212;47.892;16.406;2023-09-07T09:30:59;3.70;;;2.80;;
10333;SDS011;5212;47.892;16.406;2023-09-07T09:33:26;4.33;;;3.30;;
10333;SDS011;5212;47.892;16.406;2023-09-07T09:35:53;4.50;;;2.90;;
10333;SDS011;5212;47.892;16.406;2023-09-07T09:38:20;5.63;;;3.33;;
10333;SDS011;5212;47.892;16.406;2023-09-07T09:40:46;3.40;;;2.90;;
10333;SDS011;5212;47.892;16.406;2023-09-07T09:43:12;4.73;;;3.20;;
10333;SDS011;5212;47.892;16.406;2023-09-07T09:45:38;5.13;;;2.97;;
10333;SDS011;5212;47.892;16.406;2023-09-07T09:48:05;4.33;;;3.20;;
10333;SDS011;5212;47.892;16.406;2023-09-07T09:50:31;4.07;;;3.13;;
10333;SDS011;5212;47.892;16.406;2023-09-07T09:52:59;3.80;;;2.70;;
10333;SDS011;5212;47.892;16.406;2023-09-07T09:55:26;5.47;;;2.73;;
10333;SDS011;5212;47.892;16.406;2023-09-07T09:57:53;2.80;;;2.37;;
10333;SDS011;5212;47.892;16.406;2023-09-07T10:00:22;2.80;;;2.50;;
10333;SDS011;5212;47.892;16.406;2023-09-07T10:02:53;3.60;;;2.70;;
10333;SDS011;5212;47.892;16.406;2023-09-07T10:05:24;4.80;;;2.90;;
10333;SDS011;5212;47.892;16.406;2023-09-07T10:07:51;3.90;;;2.77;;
10333;SDS011;5212;47.892;16.406;2023-09-07T10:10:18;3.40;;;2.93;;
10333;SDS011;5212;47.892;16.406;2023-09-07T10:12:45;4.70;;;2.63;;
10333;SDS011;5212;47.892;16.406;2023-09-07T10:15:20;3.70;;;2.80;;
10333;SDS011;5212;47.892;16.406;2023-09-07T10:17:47;3.87;;;2.90;;
10333;SDS011;5212;47.892;16.406;2023-09-07T10:20:15;3.73;;;2.87;;
10333;SDS011;5212;47.892;16.406;2023-09-07T10:22:42;4.37;;;3.23;;
10333;SDS011;5212;47.892;16.406;2023-09-07T10:25:17;4.17;;;3.00;;
10333;SDS011;5212;47.892;16.406;2023-09-07T10:27:45;3.97;;;3.20;;
10333;SDS011;5212;47.892;16.406;2023-09-07T10:30:12;4.40;;;3.10;;
10333;SDS011;5212;47.892;16.406;2023-09-07T10:32:38;3.80;;;2.80;;
10333;SDS011;5212;47.892;16.406;2023-09-07T10:35:11;3.83;;;2.83;;
10333;SDS011;5212;47.892;16.406;2023-09-07T10:37:38;3.50;;;2.93;;
10333;SDS011;5212;47.892;16.406;2023-09-07T10:40:05;3.77;;;2.83;;
10333;SDS011;5212;47.892;16.406;2023-09-07T10:42:36;4.33;;;2.83;;
10333;SDS011;5212;47.892;16.406;2023-09-07T10:45:08;4.37;;;2.83;;
10333;SDS011;5212;47.892;16.406;2023-09-07T10:47:36;3.53;;;2.60;;
10333;SDS011;5212;47.892;16.406;2023-09-07T10:50:06;3.30;;;2.60;;
10333;SDS011;5212;47.892;16.406;2023-09-07T10:52:33;4.03;;;2.73;;
10333;SDS011;5212;47.892;16.406;2023-09-07T10:54:59;4.00;;;2.87;;
10333;SDS011;5212;47.892;16.406;2023-09-07T10:57:25;3.60;;;2.80;;
10333;SDS011;5212;47.892;16.406;2023-09-07T10:59:51;4.70;;;2.80;;
10333;SDS011;5212;47.892;16.406;2023-09-07T11:02:20;3.90;;;2.43;;
10333;SDS011;5212;47.892;16.406;2023-09-07T11:04:47;3.40;;;2.40;;
10333;SDS011;5212;47.892;16.406;2023-09-07T11:07:13;4.20;;;2.67;;
10333;SDS011;5212;47.892;16.406;2023-09-07T11:09:39;3.43;;;2.90;;
10333;SDS011;5212;47.892;16.406;2023-09-07T11:12:06;3.50;;;2.87;;
10333;SDS011;5212;47.892;16.406;2023-09-07T11:14:33;3.53;;;2.57;;
10333;SDS011;5212;47.892;16.406;2023-09-07T11:17:00;4.00;;;3.10;;
10333;SDS011;5212;47.892;16.406;2023-09-07T11:19:27;4.13;;;2.57;;
10333;SDS011;5212;47.892;16.406;2023-09-07T11:21:53;3.47;;;2.60;;
10333;SDS011;5212;47.892;16.406;2023-09-07T11:24:19;3.37;;;2.90;;
10333;SDS011;5212;47.892;16.406;2023-09-07T11:26:46;4.17;;;3.10;;
10333;SDS011;5212;47.892;16.406;2023-09-07T11:29:13;4.00;;;2.87;;
10333;SDS011;5212;47.892;16.406;2023-09-07T11:31:39;5.30;;;2.70;;
10333;SDS011;5212;47.892;16.406;2023-09-07T11:34:08;3.50;;;2.60;;
10333;SDS011;5212;47.892;16.406;2023-09-07T11:36:36;2.83;;;2.40;;
10333;SDS011;5212;47.892;16.406;2023-09-07T11:39:02;3.60;;;2.30;;
10333;SDS011;5212;47.892;16.406;2023-09-07T11:41:35;3.10;;;2.50;;
10333;SDS011;5212;47.892;16.406;2023-09-07T11:44:01;4.07;;;2.73;;
10333;SDS011;5212;47.892;16.406;2023-09-07T11:46:27;4.40;;;3.03;;
10333;SDS011;5212;47.892;16.406;2023-09-07T11:48:53;4.30;;;2.43;;
10333;SDS011;5212;47.892;16.406;2023-09-07T11:51:19;2.97;;;2.37;;
10333;SDS011;5212;47.892;16.406;2023-09-07T11:53:47;4.73;;;2.40;;
10333;SDS011;5212;47.892;16.406;2023-09-07T11:56:14;3.13;;;2.20;;
10333;SDS011;5212;47.892;16.406;2023-09-07T11:58:41;2.80;;;2.30;;
10333;SDS011;5212;47.892;16.406;2023-09-07T12:01:07;4.00;;;2.87;;
10333;SDS011;5212;47.892;16.406;2023-09-07T12:03:34;3.83;;;3.17;;
10333;SDS011;5212;47.892;16.406;2023-09-07T12:06:00;4.87;;;2.80;;
10333;SDS011;5212;47.892;16.406;2023-09-07T12:08:26;8.17;;;3.37;;
10333;SDS011;5212;47.892;16.406;2023-09-07T12:10:52;3.87;;;3.00;;
10333;SDS011;5212;47.892;16.406;2023-09-07T12:13:18;2.70;;;2.43;;
10333;SDS011;5212;47.892;16.406;2023-09-07T12:15:44;4.50;;;3.03;;
10333;SDS011;5212;47.892;16.406;2023-09-07T12:18:10;3.03;;;2.73;;
10333;SDS011;5212;47.892;16.406;2023-09-07T12:20:36;3.47;;;2.80;;
10333;SDS011;5212;47.892;16.406;2023-09-07T12:23:02;3.17;;;2.37;;
10333;SDS011;5212;47.892;16.406;2023-09-07T12:25:29;3.63;;;2.83;;
10333;SDS011;5212;47.892;16.406;2023-09-07T12:27:58;4.83;;;2.90;;
10333;SDS011;5212;47.892;16.406;2023-09-07T12:30:24;4.07;;;2.97;;
10333;SDS011;5212;47.892;16.406;2023-09-07T12:32:50;3.50;;;2.87;;
10333;SDS011;5212;47.892;16.406;2023-09-07T12:35:16;3.60;;;2.60;;
10333;SDS011;5212;47.892;16.406;2023-09-07T12:37:42;3.60;;;2.73;;
10333;SDS011;5212;47.892;16.406;2023-09-07T12:40:09;2.70;;;2.47;;
10333;SDS011;5212;47.892;16.406;2023-09-07T12:42:38;5.77;;;2.93;;
10333;SDS011;5212;47.892;16.406;2023-09-07T12:45:06;4.17;;;2.93;;
10333;SDS011;5212;47.892;16.406;2023-09-07T12:47:33;3.47;;;2.93;;
10333;SDS011;5212;47.892;16.406;2023-09-07T12:49:59;4.20;;;3.17;;
10333;SDS011;5212;47.892;16.406;2023-09-07T12:52:25;3.27;;;2.80;;
10333;SDS011;5212;47.892;16.406;2023-09-07T12:54:51;4.37;;;3.00;;
10333;SDS011;5212;47.892;16.406;2023-09-07T12:57:17;4.27;;;3.10;;
10333;SDS011;5212;47.892;16.406;2023-09-07T12:59:43;3.93;;;3.17;;
10333;SDS011;5212;47.892;16.406;2023-09-07T13:02:10;4.03;;;2.70;;
10333;SDS011;5212;47.892;16.406;2023-09-07T13:04:36;3.23;;;2.83;;
10333;SDS011;5212;47.892;16.406;2023-09-07T13:07:02;3.50;;;2.77;;
10333;SDS011;5212;47.892;16.406;2023-09-07T13:09:28;3.20;;;2.77;;
10333;SDS011;5212;47.892;16.406;2023-09-07T13:11:54;3.90;;;2.93;;
10333;SDS011;5212;47.892;16.406;2023-09-07T13:14:20;5.47;;;3.00;;
10333;SDS011;5212;47.892;16.406;2023-09-07T13:16:46;5.40;;;3.03;;
10333;SDS011;5212;47.892;16.406;2023-09-07T13:19:13;5.00;;;2.70;;
10333;SDS011;5212;47.892;16.406;2023-09-07T13:21:39;2.93;;;2.60;;
10333;SDS011;5212;47.892;16.406;2023-09-07T13:24:05;4.23;;;2.90;;
10333;SDS011;5212;47.892;16.406;2023-09-07T13:26:31;4.77;;;2.40;;
10333;SDS011;5212;47.892;16.406;2023-09-07T13:28:58;3.40;;;2.60;;
10333;SDS011;5212;47.892;16.406;2023-09-07T13:31:24;4.53;;;3.10;;
10333;SDS011;5212;47.892;16.406;2023-09-07T13:33:50;3.73;;;2.80;;
10333;SDS011;5212;47.892;16.406;2023-09-07T13:36:17;3.17;;;2.77;;
10333;SDS011;5212;47.892;16.406;2023-09-07T13:38:43;3.63;;;2.83;;
10333;SDS011;5212;47.892;16.406;2023-09-07T13:41:09;3.70;;;2.93;;
10333;SDS011;5212;47.892;16.406;2023-09-07T13:43:35;3.83;;;2.80;;
10333;SDS011;5212;47.892;16.406;2023-09-07T13:46:01;3.80;;;2.47;;
10333;SDS011;5212;47.892;16.406;2023-09-07T13:48:27;3.97;;;3.20;;
10333;SDS011;5212;47.892;16.406;2023-09-07T13:50:55;3.40;;;2.73;;
10333;SDS011;5212;47.892;16.406;2023-09-07T13:53:22;4.70;;;2.80;;
10333;SDS011;5212;47.892;16.406;2023-09-07T13:55:48;3.97;;;2.73;;
10333;SDS011;5212;47.892;16.406;2023-09-07T13:58:15;3.20;;;2.90;;
10333;SDS011;5212;47.892;16.406;2023-09-07T14:00:41;3.87;;;2.97;;
10333;SDS011;5212;47.892;16.406;2023-09-07T14:03:07;5.03;;;2.53;;
10333;SDS011;5212;47.892;16.406;2023-09-07T14:05:34;4.37;;;2.63;;
10333;SDS011;5212;47.892;16.406;2023-09-07T14:08:00;3.37;;;2.90;;
10333;SDS011;5212;47.892;16.406;2023-09-07T14:10:27;3.97;;;2.70;;
10333;SDS011;5212;47.892;16.406;2023-09-07T14:12:53;4.10;;;3.00;;
10333;SDS011;5212;47.892;16.406;2023-09-07T14:15:19;4.27;;;2.83;;
10333;SDS011;5212;47.892;16.406;2023-09-07T14:17:45;3.73;;;2.63;;
10333;SDS011;5212;47.892;16.406;2023-09-07T14:20:11;4.93;;;2.80;;
10333;SDS011;5212;47.892;16.406;2023-09-07T14:22:37;2.97;;;2.40;;
10333;SDS011;5212;47.892;16.406;2023-09-07T14:25:03;4.10;;;2.80;;
10333;SDS011;5212;47.892;16.406;2023-09-07T14:27:30;3.63;;;2.53;;
10333;SDS011;5212;47.892;16.406;2023-09-07T14:29:57;4.87;;;2.90;;
10333;SDS011;5212;47.892;16.406;2023-09-07T14:32:23;3.80;;;2.80;;
10333;SDS011;5212;47.892;16.406;2023-09-07T14:34:49;4.27;;;2.63;;
10333;SDS011;5212;47.892;16.406;2023-09-07T14:37:15;2.80;;;2.23;;
10333;SDS011;5212;47.892;16.406;2023-09-07T14:39:41;2.97;;;2.43;;
10333;SDS011;5212;47.892;16.406;2023-09-07T14:42:12;3.93;;;2.67;;
10333;SDS011;5212;47.892;16.406;2023-09-07T14:44:42;4.70;;;2.73;;